sensor_id;sensor_type;location;lat;lon;timestamp;P1;durP1;ratioP1;P2;durP2;ratioP2
61962;SDS011;47927;42.646;23.096;2023-05-25T00:02:19;7.00;;;3.70;;
61962;SDS011;47927;42.646;23.096;2023-05-25T00:04:48;5.40;;;3.60;;
61962;SDS011;47927;42.646;23.096;2023-05-25T00:07:14;7.28;;;3.58;;
61962;SDS011;47927;42.646;23.096;2023-05-25T00:09:59;5.47;;;3.58;;
61962;SDS011;47927;42.646;23.096;2023-05-25T00:12:24;6.20;;;4.07;;
61962;SDS011;47927;42.646;23.096;2023-05-25T00:14:50;6.13;;;4.00;;
61962;SDS011;47927;42.646;23.096;2023-05-25T00:17:16;7.97;;;3.80;;
61962;SDS011;47927;42.646;23.096;2023-05-25T00:19:43;6.45;;;3.97;;
61962;SDS011;47927;42.646;23.096;2023-05-25T00:22:10;6.55;;;4.00;;
61962;SDS011;47927;42.646;23.096;2023-05-25T00:24:36;7.03;;;3.70;;
61962;SDS011;47927;42.646;23.096;2023-05-25T00:27:03;7.75;;;3.40;;
61962;SDS011;47927;42.646;23.096;2023-05-25T00:29:28;7.15;;;3.90;;
61962;SDS011;47927;42.646;23.096;2023-05-25T00:31:54;6.35;;;3.83;;
61962;SDS011;47927;42.646;23.096;2023-05-25T00:34:20;7.88;;;3.55;;
61962;SDS011;47927;42.646;23.096;2023-05-25T00:36:47;6.68;;;3.80;;
61962;SDS011;47927;42.646;23.096;2023-05-25T00:39:13;6.55;;;4.38;;
61962;SDS011;47927;42.646;23.096;2023-05-25T00:41:40;5.68;;;3.78;;
61962;SDS011;47927;42.646;23.096;2023-05-25T00:44:08;5.30;;;3.35;;
61962;SDS011;47927;42.646;23.096;2023-05-25T00:46:36;6.35;;;3.90;;
61962;SDS011;47927;42.646;23.096;2023-05-25T00:49:03;7.10;;;3.67;;
61962;SDS011;47927;42.646;23.096;2023-05-25T00:51:29;5.35;;;3.22;;
61962;SDS011;47927;42.646;23.096;2023-05-25T00:53:57;6.30;;;3.88;;
61962;SDS011;47927;42.646;23.096;2023-05-25T00:56:25;8.30;;;3.85;;
61962;SDS011;47927;42.646;23.096;2023-05-25T00:58:56;6.88;;;4.22;;
61962;SDS011;47927;42.646;23.096;2023-05-25T01:01:27;11.25;;;3.80;;
61962;SDS011;47927;42.646;23.096;2023-05-25T01:03:57;5.72;;;4.15;;
61962;SDS011;47927;42.646;23.096;2023-05-25T01:06:25;5.13;;;3.42;;
61962;SDS011;47927;42.646;23.096;2023-05-25T01:08:58;7.43;;;3.75;;
61962;SDS011;47927;42.646;23.096;2023-05-25T01:13:56;7.28;;;3.90;;
61962;SDS011;47927;42.646;23.096;2023-05-25T01:16:23;7.03;;;4.25;;
61962;SDS011;47927;42.646;23.096;2023-05-25T01:18:50;6.55;;;3.83;;
61962;SDS011;47927;42.646;23.096;2023-05-25T01:24:18;8.05;;;3.95;;
61962;SDS011;47927;42.646;23.096;2023-05-25T01:26:57;6.00;;;4.20;;
61962;SDS011;47927;42.646;23.096;2023-05-25T01:29:32;7.28;;;4.43;;
61962;SDS011;47927;42.646;23.096;2023-05-25T01:31:59;6.35;;;3.92;;
61962;SDS011;47927;42.646;23.096;2023-05-25T01:34:27;8.52;;;3.90;;
61962;SDS011;47927;42.646;23.096;2023-05-25T01:36:55;8.15;;;4.22;;
61962;SDS011;47927;42.646;23.096;2023-05-25T01:39:21;5.95;;;3.42;;
61962;SDS011;47927;42.646;23.096;2023-05-25T01:41:47;6.00;;;4.05;;
61962;SDS011;47927;42.646;23.096;2023-05-25T01:44:13;8.93;;;4.00;;
61962;SDS011;47927;42.646;23.096;2023-05-25T01:46:38;6.35;;;3.70;;
61962;SDS011;47927;42.646;23.096;2023-05-25T01:49:15;7.75;;;3.92;;
61962;SDS011;47927;42.646;23.096;2023-05-25T01:52:11;6.00;;;4.03;;
61962;SDS011;47927;42.646;23.096;2023-05-25T01:54:46;8.20;;;3.45;;
61962;SDS011;47927;42.646;23.096;2023-05-25T01:57:29;5.65;;;3.72;;
61962;SDS011;47927;42.646;23.096;2023-05-25T02:00:02;6.18;;;3.60;;
61962;SDS011;47927;42.646;23.096;2023-05-25T02:02:39;8.05;;;4.30;;
61962;SDS011;47927;42.646;23.096;2023-05-25T02:05:07;7.50;;;4.05;;
61962;SDS011;47927;42.646;23.096;2023-05-25T02:07:33;6.65;;;3.80;;
61962;SDS011;47927;42.646;23.096;2023-05-25T02:10:00;10.32;;;3.95;;
61962;SDS011;47927;42.646;23.096;2023-05-25T02:12:25;5.63;;;3.67;;
61962;SDS011;47927;42.646;23.096;2023-05-25T02:14:51;7.20;;;3.70;;
61962;SDS011;47927;42.646;23.096;2023-05-25T02:17:16;7.05;;;3.55;;
61962;SDS011;47927;42.646;23.096;2023-05-25T02:19:42;7.57;;;4.13;;
61962;SDS011;47927;42.646;23.096;2023-05-25T02:22:09;7.00;;;4.32;;
61962;SDS011;47927;42.646;23.096;2023-05-25T02:24:34;5.68;;;3.95;;
61962;SDS011;47927;42.646;23.096;2023-05-25T02:27:02;6.70;;;3.97;;
61962;SDS011;47927;42.646;23.096;2023-05-25T02:29:31;8.20;;;4.47;;
61962;SDS011;47927;42.646;23.096;2023-05-25T02:31:57;6.40;;;3.90;;
61962;SDS011;47927;42.646;23.096;2023-05-25T02:34:23;5.65;;;3.47;;
61962;SDS011;47927;42.646;23.096;2023-05-25T02:36:50;7.35;;;4.05;;
61962;SDS011;47927;42.646;23.096;2023-05-25T02:39:16;6.70;;;3.58;;
61962;SDS011;47927;42.646;23.096;2023-05-25T02:41:42;8.75;;;4.03;;
61962;SDS011;47927;42.646;23.096;2023-05-25T02:44:07;6.25;;;3.58;;
61962;SDS011;47927;42.646;23.096;2023-05-25T02:46:33;7.35;;;4.07;;
61962;SDS011;47927;42.646;23.096;2023-05-25T02:48:59;6.10;;;3.83;;
61962;SDS011;47927;42.646;23.096;2023-05-25T02:51:25;5.28;;;3.78;;
61962;SDS011;47927;42.646;23.096;2023-05-25T02:53:53;8.98;;;4.05;;
61962;SDS011;47927;42.646;23.096;2023-05-25T02:56:19;9.57;;;4.07;;
61962;SDS011;47927;42.646;23.096;2023-05-25T02:58:47;8.68;;;4.28;;
61962;SDS011;47927;42.646;23.096;2023-05-25T03:01:19;6.57;;;3.63;;
61962;SDS011;47927;42.646;23.096;2023-05-25T03:03:52;6.80;;;4.03;;
61962;SDS011;47927;42.646;23.096;2023-05-25T03:06:18;5.30;;;3.85;;
61962;SDS011;47927;42.646;23.096;2023-05-25T03:08:49;6.68;;;3.70;;
61962;SDS011;47927;42.646;23.096;2023-05-25T03:11:15;7.40;;;4.15;;
61962;SDS011;47927;42.646;23.096;2023-05-25T03:13:41;8.27;;;3.90;;
61962;SDS011;47927;42.646;23.096;2023-05-25T03:16:07;7.43;;;3.72;;
61962;SDS011;47927;42.646;23.096;2023-05-25T03:18:33;7.63;;;3.70;;
61962;SDS011;47927;42.646;23.096;2023-05-25T03:20:58;4.90;;;3.38;;
61962;SDS011;47927;42.646;23.096;2023-05-25T03:23:24;6.35;;;4.30;;
61962;SDS011;47927;42.646;23.096;2023-05-25T03:25:53;6.63;;;3.50;;
61962;SDS011;47927;42.646;23.096;2023-05-25T03:28:19;6.88;;;4.03;;
61962;SDS011;47927;42.646;23.096;2023-05-25T03:30:45;7.18;;;4.38;;
61962;SDS011;47927;42.646;23.096;2023-05-25T03:33:10;5.68;;;3.90;;
61962;SDS011;47927;42.646;23.096;2023-05-25T03:35:42;7.65;;;3.92;;
61962;SDS011;47927;42.646;23.096;2023-05-25T03:38:08;7.45;;;4.07;;
61962;SDS011;47927;42.646;23.096;2023-05-25T03:40:33;8.40;;;4.18;;
61962;SDS011;47927;42.646;23.096;2023-05-25T03:42:59;6.78;;;4.45;;
61962;SDS011;47927;42.646;23.096;2023-05-25T03:45:25;6.90;;;3.90;;
61962;SDS011;47927;42.646;23.096;2023-05-25T03:47:50;7.55;;;4.90;;
61962;SDS011;47927;42.646;23.096;2023-05-25T03:50:16;7.07;;;4.25;;
61962;SDS011;47927;42.646;23.096;2023-05-25T03:52:42;5.95;;;4.60;;
61962;SDS011;47927;42.646;23.096;2023-05-25T03:55:08;9.50;;;4.93;;
61962;SDS011;47927;42.646;23.096;2023-05-25T03:57:34;7.93;;;4.53;;
61962;SDS011;47927;42.646;23.096;2023-05-25T03:59:59;8.93;;;5.10;;
61962;SDS011;47927;42.646;23.096;2023-05-25T04:02:25;5.75;;;4.43;;
61962;SDS011;47927;42.646;23.096;2023-05-25T04:04:53;8.63;;;4.60;;
61962;SDS011;47927;42.646;23.096;2023-05-25T04:07:20;7.07;;;3.90;;
61962;SDS011;47927;42.646;23.096;2023-05-25T04:09:46;6.80;;;4.00;;
61962;SDS011;47927;42.646;23.096;2023-05-25T04:12:11;8.63;;;4.38;;
61962;SDS011;47927;42.646;23.096;2023-05-25T04:14:37;10.07;;;4.63;;
61962;SDS011;47927;42.646;23.096;2023-05-25T04:17:21;9.98;;;5.03;;
61962;SDS011;47927;42.646;23.096;2023-05-25T04:19:49;7.28;;;4.20;;
61962;SDS011;47927;42.646;23.096;2023-05-25T04:22:18;5.78;;;3.58;;
61962;SDS011;47927;42.646;23.096;2023-05-25T04:24:44;9.35;;;4.32;;
61962;SDS011;47927;42.646;23.096;2023-05-25T04:27:10;6.45;;;3.80;;
61962;SDS011;47927;42.646;23.096;2023-05-25T04:29:36;8.13;;;4.18;;
61962;SDS011;47927;42.646;23.096;2023-05-25T04:32:02;9.82;;;4.25;;
61962;SDS011;47927;42.646;23.096;2023-05-25T04:34:41;6.93;;;3.90;;
61962;SDS011;47927;42.646;23.096;2023-05-25T04:37:20;8.23;;;3.65;;
61962;SDS011;47927;42.646;23.096;2023-05-25T04:39:46;12.77;;;4.53;;
61962;SDS011;47927;42.646;23.096;2023-05-25T04:42:11;7.40;;;3.85;;
61962;SDS011;47927;42.646;23.096;2023-05-25T04:44:37;9.48;;;4.53;;
61962;SDS011;47927;42.646;23.096;2023-05-25T04:47:04;6.38;;;4.53;;
61962;SDS011;47927;42.646;23.096;2023-05-25T04:49:32;11.30;;;4.75;;
61962;SDS011;47927;42.646;23.096;2023-05-25T04:51:58;8.52;;;4.93;;
61962;SDS011;47927;42.646;23.096;2023-05-25T04:54:26;9.88;;;5.35;;
61962;SDS011;47927;42.646;23.096;2023-05-25T04:56:51;15.35;;;5.18;;
61962;SDS011;47927;42.646;23.096;2023-05-25T04:59:18;27.27;;;6.95;;
61962;SDS011;47927;42.646;23.096;2023-05-25T05:01:44;9.25;;;5.10;;
61962;SDS011;47927;42.646;23.096;2023-05-25T05:04:12;10.32;;;5.28;;
61962;SDS011;47927;42.646;23.096;2023-05-25T05:06:40;7.40;;;4.88;;
61962;SDS011;47927;42.646;23.096;2023-05-25T05:09:09;16.38;;;5.55;;
61962;SDS011;47927;42.646;23.096;2023-05-25T05:11:35;11.82;;;5.10;;
61962;SDS011;47927;42.646;23.096;2023-05-25T05:14:01;10.63;;;5.75;;
61962;SDS011;47927;42.646;23.096;2023-05-25T05:16:28;33.83;;;5.50;;
61962;SDS011;47927;42.646;23.096;2023-05-25T05:18:57;10.40;;;4.88;;
61962;SDS011;47927;42.646;23.096;2023-05-25T05:21:23;22.58;;;5.55;;
61962;SDS011;47927;42.646;23.096;2023-05-25T05:23:48;12.43;;;5.22;;
61962;SDS011;47927;42.646;23.096;2023-05-25T05:26:14;10.73;;;4.80;;
61962;SDS011;47927;42.646;23.096;2023-05-25T05:28:40;9.13;;;5.28;;
61962;SDS011;47927;42.646;23.096;2023-05-25T05:31:06;8.07;;;5.03;;
61962;SDS011;47927;42.646;23.096;2023-05-25T05:33:33;8.43;;;5.15;;
61962;SDS011;47927;42.646;23.096;2023-05-25T05:35:59;11.32;;;5.45;;
61962;SDS011;47927;42.646;23.096;2023-05-25T05:38:28;8.45;;;4.93;;
61962;SDS011;47927;42.646;23.096;2023-05-25T05:40:53;7.43;;;4.63;;
61962;SDS011;47927;42.646;23.096;2023-05-25T05:43:21;8.95;;;4.20;;
61962;SDS011;47927;42.646;23.096;2023-05-25T05:45:47;7.70;;;4.00;;
61962;SDS011;47927;42.646;23.096;2023-05-25T05:48:12;8.98;;;3.58;;
61962;SDS011;47927;42.646;23.096;2023-05-25T05:50:38;6.80;;;3.65;;
61962;SDS011;47927;42.646;23.096;2023-05-25T05:53:04;11.10;;;3.83;;
61962;SDS011;47927;42.646;23.096;2023-05-25T05:55:31;4.28;;;3.03;;
61962;SDS011;47927;42.646;23.096;2023-05-25T05:57:57;4.68;;;2.67;;
61962;SDS011;47927;42.646;23.096;2023-05-25T06:00:23;4.47;;;2.95;;
61962;SDS011;47927;42.646;23.096;2023-05-25T06:02:50;13.40;;;3.00;;
61962;SDS011;47927;42.646;23.096;2023-05-25T06:05:18;4.35;;;3.13;;
61962;SDS011;47927;42.646;23.096;2023-05-25T06:07:45;4.93;;;3.45;;
61962;SDS011;47927;42.646;23.096;2023-05-25T06:10:11;7.55;;;3.70;;
61962;SDS011;47927;42.646;23.096;2023-05-25T06:12:37;5.90;;;3.65;;
61962;SDS011;47927;42.646;23.096;2023-05-25T06:15:03;6.50;;;3.55;;
61962;SDS011;47927;42.646;23.096;2023-05-25T06:17:31;6.72;;;3.72;;
61962;SDS011;47927;42.646;23.096;2023-05-25T06:19:56;5.22;;;3.90;;
61962;SDS011;47927;42.646;23.096;2023-05-25T06:22:22;7.25;;;3.78;;
61962;SDS011;47927;42.646;23.096;2023-05-25T06:27:17;5.00;;;3.45;;
61962;SDS011;47927;42.646;23.096;2023-05-25T06:29:43;6.38;;;3.70;;
61962;SDS011;47927;42.646;23.096;2023-05-25T06:32:08;7.35;;;4.28;;
61962;SDS011;47927;42.646;23.096;2023-05-25T06:34:37;5.67;;;3.50;;
61962;SDS011;47927;42.646;23.096;2023-05-25T06:37:03;7.38;;;3.80;;
61962;SDS011;47927;42.646;23.096;2023-05-25T06:39:28;6.03;;;3.88;;
61962;SDS011;47927;42.646;23.096;2023-05-25T06:41:54;8.68;;;3.90;;
61962;SDS011;47927;42.646;23.096;2023-05-25T06:44:31;10.63;;;4.03;;
61962;SDS011;47927;42.646;23.096;2023-05-25T06:47:15;7.25;;;3.70;;
61962;SDS011;47927;42.646;23.096;2023-05-25T06:49:41;4.53;;;3.75;;
61962;SDS011;47927;42.646;23.096;2023-05-25T06:52:06;6.47;;;3.83;;
61962;SDS011;47927;42.646;23.096;2023-05-25T06:54:31;8.50;;;3.63;;
61962;SDS011;47927;42.646;23.096;2023-05-25T06:56:57;6.93;;;4.05;;
61962;SDS011;47927;42.646;23.096;2023-05-25T06:59:23;6.57;;;3.92;;
61962;SDS011;47927;42.646;23.096;2023-05-25T07:01:48;9.27;;;4.07;;
61962;SDS011;47927;42.646;23.096;2023-05-25T07:04:14;4.72;;;3.67;;
61962;SDS011;47927;42.646;23.096;2023-05-25T07:06:39;9.20;;;3.95;;
61962;SDS011;47927;42.646;23.096;2023-05-25T07:09:05;5.80;;;4.30;;
61962;SDS011;47927;42.646;23.096;2023-05-25T07:11:31;7.43;;;4.28;;
61962;SDS011;47927;42.646;23.096;2023-05-25T07:13:56;6.13;;;4.70;;
61962;SDS011;47927;42.646;23.096;2023-05-25T07:16:22;8.82;;;4.80;;
61962;SDS011;47927;42.646;23.096;2023-05-25T07:18:47;6.43;;;5.05;;
61962;SDS011;47927;42.646;23.096;2023-05-25T07:21:13;5.53;;;3.92;;
61962;SDS011;47927;42.646;23.096;2023-05-25T07:23:38;8.20;;;4.10;;
61962;SDS011;47927;42.646;23.096;2023-05-25T07:26:05;5.93;;;4.30;;
61962;SDS011;47927;42.646;23.096;2023-05-25T07:28:30;5.35;;;3.78;;
61962;SDS011;47927;42.646;23.096;2023-05-25T07:30:56;8.73;;;5.40;;
61962;SDS011;47927;42.646;23.096;2023-05-25T07:33:21;7.32;;;4.85;;
61962;SDS011;47927;42.646;23.096;2023-05-25T07:35:47;6.45;;;4.78;;
61962;SDS011;47927;42.646;23.096;2023-05-25T07:38:12;8.80;;;4.63;;
61962;SDS011;47927;42.646;23.096;2023-05-25T07:40:38;6.65;;;5.32;;
61962;SDS011;47927;42.646;23.096;2023-05-25T07:43:04;12.35;;;5.07;;
61962;SDS011;47927;42.646;23.096;2023-05-25T07:45:29;6.60;;;4.90;;
61962;SDS011;47927;42.646;23.096;2023-05-25T07:47:55;4.68;;;3.28;;
61962;SDS011;47927;42.646;23.096;2023-05-25T07:50:20;8.25;;;4.85;;
61962;SDS011;47927;42.646;23.096;2023-05-25T07:52:47;6.68;;;4.80;;
61962;SDS011;47927;42.646;23.096;2023-05-25T07:55:13;7.15;;;4.20;;
61962;SDS011;47927;42.646;23.096;2023-05-25T07:57:38;6.28;;;4.40;;
61962;SDS011;47927;42.646;23.096;2023-05-25T08:00:04;7.25;;;4.07;;
61962;SDS011;47927;42.646;23.096;2023-05-25T08:02:38;5.78;;;3.50;;
61962;SDS011;47927;42.646;23.096;2023-05-25T08:05:03;4.60;;;3.38;;
61962;SDS011;47927;42.646;23.096;2023-05-25T08:07:33;6.10;;;4.15;;
61962;SDS011;47927;42.646;23.096;2023-05-25T08:09:59;8.25;;;3.53;;
61962;SDS011;47927;42.646;23.096;2023-05-25T08:12:24;5.90;;;3.85;;
61962;SDS011;47927;42.646;23.096;2023-05-25T08:14:50;8.23;;;4.88;;
61962;SDS011;47927;42.646;23.096;2023-05-25T08:17:16;4.28;;;2.90;;
61962;SDS011;47927;42.646;23.096;2023-05-25T08:19:41;4.82;;;2.80;;
61962;SDS011;47927;42.646;23.096;2023-05-25T08:22:07;3.67;;;2.25;;
61962;SDS011;47927;42.646;23.096;2023-05-25T08:24:32;6.47;;;2.95;;
61962;SDS011;47927;42.646;23.096;2023-05-25T08:26:58;4.05;;;2.58;;
61962;SDS011;47927;42.646;23.096;2023-05-25T08:29:25;4.78;;;3.40;;
61962;SDS011;47927;42.646;23.096;2023-05-25T08:31:50;5.57;;;2.72;;
61962;SDS011;47927;42.646;23.096;2023-05-25T08:34:16;6.53;;;3.08;;
61962;SDS011;47927;42.646;23.096;2023-05-25T08:36:41;5.55;;;3.42;;
61962;SDS011;47927;42.646;23.096;2023-05-25T08:39:07;3.42;;;1.90;;
61962;SDS011;47927;42.646;23.096;2023-05-25T08:41:34;4.00;;;2.10;;
61962;SDS011;47927;42.646;23.096;2023-05-25T08:44:01;4.45;;;1.98;;
61962;SDS011;47927;42.646;23.096;2023-05-25T08:46:30;4.50;;;2.15;;
61962;SDS011;47927;42.646;23.096;2023-05-25T08:49:29;3.42;;;2.13;;
61962;SDS011;47927;42.646;23.096;2023-05-25T08:51:49;4.45;;;2.50;;
61962;SDS011;47927;42.646;23.096;2023-05-25T08:54:32;3.17;;;2.05;;
61962;SDS011;47927;42.646;23.096;2023-05-25T08:57:03;5.93;;;2.10;;
61962;SDS011;47927;42.646;23.096;2023-05-25T08:59:37;2.88;;;1.77;;
61962;SDS011;47927;42.646;23.096;2023-05-25T09:04:46;3.95;;;2.60;;
61962;SDS011;47927;42.646;23.096;2023-05-25T09:07:12;3.25;;;2.05;;
61962;SDS011;47927;42.646;23.096;2023-05-25T09:09:38;3.42;;;2.25;;
61962;SDS011;47927;42.646;23.096;2023-05-25T09:12:04;3.47;;;2.22;;
61962;SDS011;47927;42.646;23.096;2023-05-25T09:14:31;4.28;;;2.10;;
61962;SDS011;47927;42.646;23.096;2023-05-25T09:16:58;5.22;;;2.05;;
61962;SDS011;47927;42.646;23.096;2023-05-25T09:19:25;3.35;;;1.90;;
61962;SDS011;47927;42.646;23.096;2023-05-25T09:21:51;3.13;;;1.77;;
61962;SDS011;47927;42.646;23.096;2023-05-25T09:24:16;3.10;;;2.00;;
61962;SDS011;47927;42.646;23.096;2023-05-25T09:26:43;4.18;;;2.15;;
61962;SDS011;47927;42.646;23.096;2023-05-25T09:29:14;5.70;;;2.50;;
61962;SDS011;47927;42.646;23.096;2023-05-25T09:31:40;3.72;;;2.10;;
61962;SDS011;47927;42.646;23.096;2023-05-25T09:34:13;3.75;;;1.90;;
61962;SDS011;47927;42.646;23.096;2023-05-25T09:36:41;4.43;;;2.00;;
61962;SDS011;47927;42.646;23.096;2023-05-25T09:39:10;5.60;;;2.85;;
61962;SDS011;47927;42.646;23.096;2023-05-25T09:41:40;3.83;;;1.98;;
61962;SDS011;47927;42.646;23.096;2023-05-25T09:44:06;3.63;;;1.90;;
61962;SDS011;47927;42.646;23.096;2023-05-25T09:46:32;4.63;;;2.28;;
61962;SDS011;47927;42.646;23.096;2023-05-25T09:49:02;4.68;;;2.67;;
61962;SDS011;47927;42.646;23.096;2023-05-25T09:51:29;4.68;;;2.20;;
61962;SDS011;47927;42.646;23.096;2023-05-25T09:54:04;3.70;;;2.25;;
61962;SDS011;47927;42.646;23.096;2023-05-25T09:56:34;6.70;;;2.30;;
61962;SDS011;47927;42.646;23.096;2023-05-25T09:59:00;4.22;;;2.15;;
61962;SDS011;47927;42.646;23.096;2023-05-25T10:01:26;3.65;;;2.25;;
61962;SDS011;47927;42.646;23.096;2023-05-25T10:03:53;3.22;;;2.13;;
61962;SDS011;47927;42.646;23.096;2023-05-25T10:06:21;5.25;;;2.30;;
61962;SDS011;47927;42.646;23.096;2023-05-25T10:08:47;3.78;;;2.00;;
61962;SDS011;47927;42.646;23.096;2023-05-25T10:11:13;4.05;;;2.05;;
61962;SDS011;47927;42.646;23.096;2023-05-25T10:13:44;3.40;;;1.90;;
61962;SDS011;47927;42.646;23.096;2023-05-25T10:16:11;5.38;;;2.17;;
61962;SDS011;47927;42.646;23.096;2023-05-25T10:18:46;6.00;;;2.38;;
61962;SDS011;47927;42.646;23.096;2023-05-25T10:21:16;5.60;;;2.22;;
61962;SDS011;47927;42.646;23.096;2023-05-25T10:23:43;4.50;;;2.22;;
61962;SDS011;47927;42.646;23.096;2023-05-25T10:26:17;7.20;;;1.85;;
61962;SDS011;47927;42.646;23.096;2023-05-25T10:28:46;3.25;;;1.40;;
61962;SDS011;47927;42.646;23.096;2023-05-25T10:33:41;3.05;;;1.38;;
61962;SDS011;47927;42.646;23.096;2023-05-25T10:36:08;1.85;;;1.33;;
61962;SDS011;47927;42.646;23.096;2023-05-25T10:38:40;2.27;;;1.20;;
61962;SDS011;47927;42.646;23.096;2023-05-25T10:41:09;2.33;;;1.40;;
61962;SDS011;47927;42.646;23.096;2023-05-25T10:43:38;3.80;;;1.52;;
61962;SDS011;47927;42.646;23.096;2023-05-25T10:48:34;2.53;;;1.58;;
61962;SDS011;47927;42.646;23.096;2023-05-25T10:51:03;3.63;;;1.50;;
61962;SDS011;47927;42.646;23.096;2023-05-25T10:53:30;1.98;;;1.42;;
61962;SDS011;47927;42.646;23.096;2023-05-25T10:56:00;2.58;;;1.65;;
61962;SDS011;47927;42.646;23.096;2023-05-25T10:58:28;3.40;;;1.73;;
61962;SDS011;47927;42.646;23.096;2023-05-25T11:01:06;3.40;;;1.52;;
61962;SDS011;47927;42.646;23.096;2023-05-25T11:06:18;3.80;;;1.98;;
61962;SDS011;47927;42.646;23.096;2023-05-25T11:08:53;2.28;;;1.38;;
61962;SDS011;47927;42.646;23.096;2023-05-25T11:17:27;2.55;;;1.50;;
61962;SDS011;47927;42.646;23.096;2023-05-25T11:22:13;5.07;;;1.60;;
61962;SDS011;47927;42.646;23.096;2023-05-25T11:24:43;3.05;;;1.52;;
61962;SDS011;47927;42.646;23.096;2023-05-25T11:27:11;2.70;;;1.50;;
61962;SDS011;47927;42.646;23.096;2023-05-25T11:29:37;4.43;;;1.50;;
61962;SDS011;47927;42.646;23.096;2023-05-25T11:32:10;3.15;;;1.50;;
61962;SDS011;47927;42.646;23.096;2023-05-25T11:34:38;4.35;;;1.48;;
61962;SDS011;47927;42.646;23.096;2023-05-25T11:37:05;2.95;;;1.38;;
61962;SDS011;47927;42.646;23.096;2023-05-25T11:39:33;2.70;;;1.35;;
61962;SDS011;47927;42.646;23.096;2023-05-25T11:42:03;3.80;;;1.58;;
61962;SDS011;47927;42.646;23.096;2023-05-25T11:44:31;3.05;;;1.73;;
61962;SDS011;47927;42.646;23.096;2023-05-25T11:47:05;2.63;;;1.70;;
61962;SDS011;47927;42.646;23.096;2023-05-25T11:49:38;1.90;;;1.25;;
61962;SDS011;47927;42.646;23.096;2023-05-25T11:52:10;4.40;;;1.60;;
61962;SDS011;47927;42.646;23.096;2023-05-25T11:54:36;4.88;;;2.00;;
61962;SDS011;47927;42.646;23.096;2023-05-25T11:57:11;2.77;;;1.57;;
61962;SDS011;47927;42.646;23.096;2023-05-25T11:59:48;3.63;;;1.35;;
61962;SDS011;47927;42.646;23.096;2023-05-25T12:02:18;2.15;;;1.48;;
61962;SDS011;47927;42.646;23.096;2023-05-25T12:04:51;2.50;;;1.42;;
61962;SDS011;47927;42.646;23.096;2023-05-25T12:07:19;4.30;;;1.60;;
61962;SDS011;47927;42.646;23.096;2023-05-25T12:09:44;2.63;;;1.30;;
61962;SDS011;47927;42.646;23.096;2023-05-25T12:12:10;2.72;;;1.50;;
61962;SDS011;47927;42.646;23.096;2023-05-25T12:14:44;4.15;;;1.42;;
61962;SDS011;47927;42.646;23.096;2023-05-25T12:17:11;2.75;;;1.30;;
61962;SDS011;47927;42.646;23.096;2023-05-25T12:19:37;2.55;;;1.52;;
61962;SDS011;47927;42.646;23.096;2023-05-25T12:22:03;2.22;;;1.48;;
61962;SDS011;47927;42.646;23.096;2023-05-25T12:24:28;2.70;;;1.50;;
61962;SDS011;47927;42.646;23.096;2023-05-25T12:26:54;1.83;;;1.27;;
61962;SDS011;47927;42.646;23.096;2023-05-25T12:29:22;3.28;;;1.30;;
61962;SDS011;47927;42.646;23.096;2023-05-25T12:31:48;2.47;;;1.45;;
61962;SDS011;47927;42.646;23.096;2023-05-25T12:34:14;2.50;;;1.40;;
61962;SDS011;47927;42.646;23.096;2023-05-25T12:36:52;3.72;;;1.13;;
61962;SDS011;47927;42.646;23.096;2023-05-25T12:41:54;2.47;;;1.30;;
61962;SDS011;47927;42.646;23.096;2023-05-25T12:44:24;2.20;;;1.23;;
61962;SDS011;47927;42.646;23.096;2023-05-25T12:46:52;2.70;;;1.42;;
61962;SDS011;47927;42.646;23.096;2023-05-25T12:49:32;1.73;;;1.23;;
61962;SDS011;47927;42.646;23.096;2023-05-25T12:52:00;3.47;;;1.20;;
61962;SDS011;47927;42.646;23.096;2023-05-25T12:54:37;3.15;;;1.35;;
61962;SDS011;47927;42.646;23.096;2023-05-25T12:57:11;2.75;;;1.40;;
61962;SDS011;47927;42.646;23.096;2023-05-25T12:59:38;2.88;;;1.50;;
61962;SDS011;47927;42.646;23.096;2023-05-25T13:02:05;2.65;;;1.50;;
61962;SDS011;47927;42.646;23.096;2023-05-25T13:04:34;2.77;;;1.30;;
61962;SDS011;47927;42.646;23.096;2023-05-25T13:07:01;1.60;;;1.00;;
61962;SDS011;47927;42.646;23.096;2023-05-25T13:09:28;2.05;;;1.20;;
61962;SDS011;47927;42.646;23.096;2023-05-25T13:11:54;2.75;;;1.30;;
61962;SDS011;47927;42.646;23.096;2023-05-25T13:14:21;5.10;;;1.40;;
61962;SDS011;47927;42.646;23.096;2023-05-25T13:16:47;1.70;;;1.20;;
61962;SDS011;47927;42.646;23.096;2023-05-25T13:19:14;2.45;;;1.40;;
61962;SDS011;47927;42.646;23.096;2023-05-25T13:21:39;2.38;;;1.42;;
61962;SDS011;47927;42.646;23.096;2023-05-25T13:24:05;2.22;;;1.20;;
61962;SDS011;47927;42.646;23.096;2023-05-25T13:26:31;2.75;;;1.25;;
61962;SDS011;47927;42.646;23.096;2023-05-25T13:28:56;2.55;;;1.30;;
61962;SDS011;47927;42.646;23.096;2023-05-25T13:31:22;2.72;;;1.30;;
61962;SDS011;47927;42.646;23.096;2023-05-25T13:33:47;3.53;;;1.10;;
61962;SDS011;47927;42.646;23.096;2023-05-25T13:36:13;2.35;;;1.35;;
61962;SDS011;47927;42.646;23.096;2023-05-25T13:38:39;2.72;;;1.50;;
61962;SDS011;47927;42.646;23.096;2023-05-25T13:41:06;2.30;;;1.48;;
61962;SDS011;47927;42.646;23.096;2023-05-25T13:43:32;6.03;;;1.35;;
61962;SDS011;47927;42.646;23.096;2023-05-25T13:45:57;4.75;;;1.70;;
61962;SDS011;47927;42.646;23.096;2023-05-25T13:48:23;5.70;;;1.73;;
61962;SDS011;47927;42.646;23.096;2023-05-25T13:50:49;5.32;;;1.27;;
61962;SDS011;47927;42.646;23.096;2023-05-25T13:53:14;2.35;;;1.40;;
61962;SDS011;47927;42.646;23.096;2023-05-25T13:55:40;2.40;;;1.38;;
61962;SDS011;47927;42.646;23.096;2023-05-25T13:58:06;2.70;;;1.42;;
61962;SDS011;47927;42.646;23.096;2023-05-25T14:00:31;3.65;;;1.50;;
61962;SDS011;47927;42.646;23.096;2023-05-25T14:02:57;11.57;;;1.92;;
61962;SDS011;47927;42.646;23.096;2023-05-25T14:05:41;23.67;;;2.65;;
61962;SDS011;47927;42.646;23.096;2023-05-25T14:08:07;4.05;;;1.48;;
61962;SDS011;47927;42.646;23.096;2023-05-25T14:10:32;2.10;;;1.30;;
61962;SDS011;47927;42.646;23.096;2023-05-25T14:12:58;2.38;;;1.40;;
61962;SDS011;47927;42.646;23.096;2023-05-25T14:15:24;4.15;;;1.58;;
61962;SDS011;47927;42.646;23.096;2023-05-25T14:17:50;6.82;;;1.77;;
61962;SDS011;47927;42.646;23.096;2023-05-25T14:20:15;2.88;;;1.65;;
61962;SDS011;47927;42.646;23.096;2023-05-25T14:22:46;8.43;;;1.88;;
61962;SDS011;47927;42.646;23.096;2023-05-25T14:25:12;5.07;;;1.65;;
61962;SDS011;47927;42.646;23.096;2023-05-25T14:27:37;3.05;;;1.60;;
61962;SDS011;47927;42.646;23.096;2023-05-25T14:30:03;3.55;;;1.60;;
61962;SDS011;47927;42.646;23.096;2023-05-25T14:32:31;4.40;;;1.65;;
61962;SDS011;47927;42.646;23.096;2023-05-25T14:34:56;3.08;;;1.70;;
61962;SDS011;47927;42.646;23.096;2023-05-25T14:37:22;3.38;;;1.58;;
61962;SDS011;47927;42.646;23.096;2023-05-25T14:39:48;2.72;;;1.40;;
61962;SDS011;47927;42.646;23.096;2023-05-25T14:42:13;5.97;;;1.60;;
61962;SDS011;47927;42.646;23.096;2023-05-25T14:44:39;5.80;;;1.25;;
61962;SDS011;47927;42.646;23.096;2023-05-25T14:47:05;2.60;;;1.60;;
61962;SDS011;47927;42.646;23.096;2023-05-25T14:49:31;3.95;;;1.50;;
61962;SDS011;47927;42.646;23.096;2023-05-25T14:51:56;3.53;;;1.73;;
61962;SDS011;47927;42.646;23.096;2023-05-25T14:54:22;2.85;;;1.50;;
61962;SDS011;47927;42.646;23.096;2023-05-25T14:56:47;3.20;;;1.42;;
61962;SDS011;47927;42.646;23.096;2023-05-25T14:59:13;4.38;;;1.55;;
61962;SDS011;47927;42.646;23.096;2023-05-25T15:01:38;2.65;;;1.30;;
61962;SDS011;47927;42.646;23.096;2023-05-25T15:04:04;5.60;;;1.60;;
61962;SDS011;47927;42.646;23.096;2023-05-25T15:06:30;1.95;;;1.30;;